Time;durP1;ratioP1;P1;durP2;ratioP2;P2;SDS_P1;SDS_P2;PMS_P1;PMS_P2;Temp;Humidity;BMP_temperature;BMP_pressure;BME280_temperature;BME280_humidity;BME280_pressure;Samples;Min_cycle;Max_cycle;Signal;HPM_P1;HPM_P2
2024/03/11 00:03:12;;;;;;;2.70;2.50;;;;;;;12.19;56.24;97109.09;6798224;29;20734;-82
2024/03/11 00:06:35;;;;;;;3.17;2.20;;;;;;;12.16;55.44;97066.38;6816206;29;20212;-83
2024/03/11 00:09:56;;;;;;;2.50;2.30;;;;;;;12.67;54.94;97121.66;6823573;29;20245;-82
2024/03/11 00:13:18;;;;;;;2.30;2.20;;;;;;;12.61;54.55;97110.00;6824005;29;20233;-82
2024/03/11 00:16:42;;;;;;;2.27;2.17;;;;;;;12.53;54.89;97129.41;6823786;29;20243;-83
2024/03/11 00:20:04;;;;;;;2.40;2.30;;;;;;;12.86;54.14;97134.50;6823015;29;20226;-82
2024/03/11 00:23:26;;;;;;;2.33;2.23;;;;;;;12.39;55.65;97135.50;6824511;29;20273;-82
2024/03/11 00:26:49;;;;;;;2.60;2.40;;;;;;;12.58;55.08;97132.13;6823449;29;20219;-82
2024/03/11 00:30:12;;;;;;;2.33;2.13;;;;;;;12.95;54.37;97142.97;6823233;29;20253;-82
2024/03/11 00:33:35;;;;;;;2.23;2.13;;;;;;;12.73;54.61;97153.88;6817036;29;20211;-82
2024/03/11 00:36:57;;;;;;;2.60;2.40;;;;;;;12.50;54.75;97131.78;6823863;29;20239;-82
2024/03/11 00:40:19;;;;;;;2.10;2.00;;;;;;;12.52;55.24;97160.19;6823400;29;20225;-82
2024/03/11 00:43:42;;;;;;;2.30;2.03;;;;;;;12.09;56.24;97163.03;6824097;29;20209;-82
2024/03/11 00:47:06;;;;;;;2.40;2.20;;;;;;;12.55;55.43;97164.28;6824459;29;20262;-82
2024/03/11 00:50:29;;;;;;;2.30;2.20;;;;;;;12.46;55.31;97171.22;6823807;29;20238;-82
2024/03/11 00:53:50;;;;;;;2.20;2.10;;;;;;;12.69;54.31;97168.19;6821072;29;20212;-83
2024/03/11 00:57:14;;;;;;;2.57;2.00;;;;;;;12.54;53.76;97130.22;6821469;29;20282;-82
2024/03/11 01:00:36;;;;;;;2.30;2.20;;;;;;;12.61;54.43;97180.28;6824876;29;20264;-82
2024/03/11 01:03:58;;;;;;;2.27;2.17;;;;;;;12.72;54.87;97182.00;6825159;29;20545;-82
2024/03/11 01:07:21;;;;;;;2.20;2.10;;;;;;;13.04;53.96;97184.72;6825367;29;20206;-82
2024/03/11 01:10:43;;;;;;;2.03;1.93;;;;;;;12.93;53.64;97134.31;6825598;29;20742;-82
2024/03/11 01:14:05;;;;;;;2.30;2.20;;;;;;;13.03;54.11;97166.84;6826004;29;20203;-82
2024/03/11 01:17:27;;;;;;;2.37;2.23;;;;;;;12.75;53.32;97108.47;6828449;29;20212;-82
2024/03/11 01:21:20;;;;;;;2.33;2.13;;;;;;;13.16;53.10;97182.66;6831960;29;20215;-82
2024/03/11 02:37:24;;;;;;;2.10;2.00;;;;;;;12.03;55.83;97218.06;6798689;29;20220;-81
2024/03/11 02:40:54;;;;;;;2.50;2.30;;;;;;;12.17;55.49;97237.41;6800708;29;20239;-81
2024/03/11 02:44:24;;;;;;;2.20;2.10;;;;;;;11.72;56.15;97174.75;6784738;29;20215;-82
2024/03/11 02:47:45;;;;;;;3.40;2.17;;;;;;;12.19;55.46;97232.53;6800393;29;20212;-82
2024/03/11 02:51:07;;;;;;;2.20;2.00;;;;;;;12.10;54.98;97231.38;6801111;29;20275;-82
2024/03/11 02:54:32;;;;;;;2.13;2.03;;;;;;;11.52;56.47;97234.63;6802262;29;20207;-82
2024/03/11 02:57:54;;;;;;;1.90;1.80;;;;;;;11.73;56.05;97206.88;6802308;29;20223;-82
2024/03/11 03:01:16;;;;;;;2.30;2.10;;;;;;;11.54;55.86;97242.50;6800092;29;20207;-82
2024/03/11 03:04:39;;;;;;;2.33;2.20;;;;;;;11.87;55.67;97231.63;6801240;29;20359;-82
2024/03/11 03:08:01;;;;;;;2.50;2.30;;;;;;;11.28;57.04;97248.59;6801022;29;20231;-82
2024/03/11 03:11:23;;;;;;;2.30;2.20;;;;;;;11.86;55.88;97255.13;6801528;29;20234;-81
2024/03/11 03:14:45;;;;;;;2.30;2.10;;;;;;;11.73;55.71;97260.06;6802844;29;20286;-82
2024/03/11 03:18:07;;;;;;;2.10;1.90;;;;;;;11.85;55.33;97268.84;6800412;29;20672;-81
2024/03/11 03:21:29;;;;;;;2.00;1.90;;;;;;;11.20;55.75;97201.28;6801238;29;20255;-82
2024/03/11 03:24:51;;;;;;;2.10;2.00;;;;;;;11.72;55.76;97266.53;6800698;29;20612;-81
2024/03/11 03:28:16;;;;;;;1.70;1.70;;;;;;;10.91;56.29;97220.47;6801223;29;20291;-82
2024/03/11 03:31:39;;;;;;;2.17;2.07;;;;;;;11.06;56.43;97216.19;6799909;29;20226;-82
2024/03/11 03:35:00;;;;;;;1.90;1.80;;;;;;;11.22;56.87;97265.78;6801088;29;20234;-82
2024/03/11 03:38:22;;;;;;;2.83;2.10;;;;;;;10.88;55.73;97189.47;6800647;29;20238;-82
2024/03/11 03:41:45;;;;;;;1.80;1.70;;;;;;;11.63;55.81;97273.44;6800363;29;20211;-82
2024/03/11 03:45:13;;;;;;;2.23;1.97;;;;;;;10.35;58.32;97224.13;6801075;29;20259;-81
2024/03/11 03:48:36;;;;;;;2.23;2.13;;;;;;;10.95;57.10;97279.09;6798235;29;20234;-82
2024/03/11 03:51:59;;;;;;;2.03;1.93;;;;;;;10.86;56.91;97261.66;6799985;29;20306;-82
2024/03/11 03:55:21;;;;;;;2.00;1.90;;;;;;;10.25;59.31;97296.66;6801369;29;20306;-82
2024/03/11 03:58:44;;;;;;;2.20;2.00;;;;;;;10.93;57.49;97297.38;6800275;29;20243;-82
2024/03/11 04:02:08;;;;;;;2.07;1.97;;;;;;;10.46;57.29;97249.38;6800173;29;20211;-82
2024/03/11 04:14:56;;;;;;;2.10;2.00;;;;;;;10.61;56.96;97236.97;6693855;29;20708;-82
2024/03/11 04:18:20;;;;;;;2.07;1.97;;;;;;;10.91;56.95;97302.19;6681344;29;20233;-82
2024/03/11 04:21:42;;;;;;;2.00;1.90;;;;;;;11.11;55.50;97247.78;6695661;29;20262;-82
2024/03/11 04:25:05;;;;;;;2.30;2.10;;;;;;;11.24;55.12;97299.53;6697816;29;20221;-82
2024/03/11 04:28:28;;;;;;;2.30;2.10;;;;;;;11.13;55.49;97299.59;6696383;29;20704;-82
2024/03/11 04:31:49;;;;;;;1.90;1.80;;;;;;;11.04;54.25;97241.75;6695413;29;20241;-82
2024/03/11 04:57:15;;;;;;;2.83;2.33;;;;;;;10.82;54.26;97274.03;6775503;29;20208;-82
2024/03/11 05:00:46;;;;;;;1.90;1.80;;;;;;;10.85;54.22;97241.16;6747456;29;20239;-82
2024/03/11 05:09:15;;;;;;;1.70;1.60;;;;;;;11.28;53.17;97279.06;6775582;29;20327;-82
2024/03/11 05:13:22;;;;;;;1.60;1.50;;;;;;;11.48;53.56;97322.56;6775045;29;20243;-82
2024/03/11 05:22:28;;;;;;;1.80;1.70;;;;;;;10.79;54.35;97292.53;6696567;29;20618;-81
2024/03/11 05:26:10;;;;;;;1.80;1.70;;;;;;;10.38;56.45;97342.16;6608909;29;20835;-82
2024/03/11 07:30:28;;;;;;;1.60;1.50;;;;;;;15.95;42.39;97469.56;6867368;28;20227;-85
2024/03/11 07:33:50;;;;;;;1.67;1.57;;;;;;;16.23;41.32;97482.63;6867757;28;20209;-85
2024/03/11 07:37:12;;;;;;;1.70;1.60;;;;;;;16.37;41.73;97484.53;6865924;28;20273;-85
2024/03/11 07:40:34;;;;;;;1.70;1.60;;;;;;;16.36;41.92;97482.91;6864780;28;20356;-84
2024/03/11 07:43:56;;;;;;;1.70;1.60;;;;;;;16.62;41.21;97494.56;6859765;28;20574;-85
2024/03/11 07:47:19;;;;;;;1.70;1.60;;;;;;;16.45;42.16;97485.91;6857049;28;20223;-85
2024/03/11 07:50:41;;;;;;;1.67;1.57;;;;;;;16.63;39.69;97510.63;6852768;28;20232;-85
2024/03/11 07:54:03;;;;;;;1.60;1.50;;;;;;;16.75;40.97;97510.34;6866167;28;20614;-85
2024/03/11 07:57:26;;;;;;;2.10;1.70;;;;;;;17.07;39.36;97499.91;6861284;28;20214;-84
2024/03/11 08:00:47;;;;;;;1.53;1.43;;;;;;;17.09;38.83;97528.47;6859168;28;20227;-85
2024/03/11 08:04:10;;;;;;;1.87;1.50;;;;;;;16.77;40.09;97503.53;6856327;28;20209;-86
2024/03/11 08:07:32;;;;;;;1.30;1.30;;;;;;;17.15;39.31;97532.03;6836969;29;20201;-85
2024/03/11 08:10:54;;;;;;;1.70;1.60;;;;;;;17.60;39.32;97523.66;6869511;28;20231;-84
2024/03/11 08:14:16;;;;;;;1.60;1.50;;;;;;;17.41;39.66;97539.03;6883032;28;20205;-85
2024/03/11 08:17:37;;;;;;;1.63;1.40;;;;;;;17.03;39.24;97488.75;6857092;28;20202;-85
2024/03/11 08:21:00;;;;;;;1.83;1.73;;;;;;;17.35;39.01;97549.09;6846074;28;20340;-85
2024/03/11 08:24:24;;;;;;;2.07;1.60;;;;;;;16.99;38.57;97555.72;6871156;28;20905;-85
2024/03/11 08:27:46;;;;;;;1.80;1.70;;;;;;;17.21;38.68;97566.31;6863566;28;20213;-85
2024/03/11 08:31:08;;;;;;;2.40;1.60;;;;;;;17.01;38.82;97525.50;6869025;28;20429;-87
2024/03/11 08:34:29;;;;;;;1.60;1.50;;;;;;;17.92;36.76;97565.75;6864628;28;20232;-85
2024/03/11 08:37:53;;;;;;;1.20;1.20;;;;;;;18.20;37.35;97556.00;6851839;28;20268;-85
2024/03/11 08:41:14;;;;;;;1.93;1.40;;;;;;;18.77;35.67;97548.75;6838195;28;20227;-85
2024/03/11 08:44:37;;;;;;;1.10;1.10;;;;;;;18.52;35.04;97556.38;6837940;28;20297;-84
2024/03/11 08:47:58;;;;;;;1.40;1.30;;;;;;;17.94;37.26;97563.56;6844165;28;20383;-85
2024/03/11 08:51:20;;;;;;;1.50;1.40;;;;;;;18.02;36.05;97459.31;6864382;28;20226;-85
2024/03/11 08:54:43;;;;;;;2.00;1.53;;;;;;;17.13;37.58;97534.19;6856575;28;20285;-85
2024/03/11 08:58:05;;;;;;;1.73;1.60;;;;;;;16.81;38.85;97561.75;6880728;28;20235;-85
2024/03/11 09:01:27;;;;;;;1.30;1.23;;;;;;;17.34;38.03;97568.47;6844242;28;20225;-84
2024/03/11 09:04:48;;;;;;;1.77;1.67;;;;;;;17.91;37.43;97569.56;6836653;29;20300;-85
2024/03/11 09:08:10;;;;;;;1.53;1.40;;;;;;;18.52;35.96;97505.28;6842523;28;20260;-85
2024/03/11 09:11:33;;;;;;;1.87;1.33;;;;;;;18.02;36.89;97573.03;6862057;28;20225;-85
2024/03/11 09:14:55;;;;;;;1.03;1.03;;;;;;;18.26;35.51;97514.78;6847479;28;20202;-85
2024/03/11 09:18:17;;;;;;;1.67;1.27;;;;;;;19.20;35.18;97572.34;6857256;28;20723;-85
2024/03/11 09:21:39;;;;;;;1.30;1.30;;;;;;;18.87;34.91;97558.78;6840322;28;20579;-85
2024/03/11 09:25:01;;;;;;;1.47;1.37;;;;;;;19.08;35.92;97555.53;6850048;28;20582;-85
2024/03/11 09:28:23;;;;;;;1.23;1.20;;;;;;;18.38;36.19;97590.84;6840470;28;20270;-85
2024/03/11 09:31:45;;;;;;;1.30;1.30;;;;;;;18.69;36.86;97584.88;6849641;28;20314;-85
2024/03/11 09:35:09;;;;;;;1.60;1.50;;;;;;;19.58;35.93;97589.72;6863218;28;20209;-85
2024/03/11 09:38:31;;;;;;;1.67;1.57;;;;;;;18.16;36.48;97557.69;6855001;28;20260;-85
2024/03/11 09:41:55;;;;;;;1.53;1.50;;;;;;;18.32;36.81;97605.63;6840094;29;20212;-86
2024/03/11 09:45:20;;;;;;;1.83;1.33;;;;;;;19.33;35.12;97593.56;6861491;28;20207;-84
2024/03/11 09:48:43;;;;;;;1.43;1.33;;;;;;;19.57;35.79;97608.03;6851950;28;20234;-82
2024/03/11 09:52:04;;;;;;;1.70;1.60;;;;;;;19.86;34.29;97608.78;6869381;28;20233;-82
2024/03/11 09:55:28;;;;;;;2.13;1.40;;;;;;;19.59;34.07;97572.22;6850923;28;20292;-86
2024/03/11 09:58:56;;;;;;;1.70;1.60;;;;;;;19.49;35.97;97599.66;6862908;28;20225;-89
2024/03/11 10:02:20;;;;;;;1.60;1.50;;;;;;;19.98;34.90;97605.63;6855284;28;20204;-84
2024/03/11 10:05:44;;;;;;;2.07;1.30;;;;;;;20.32;33.99;97598.88;6864429;28;20318;-86
2024/03/11 10:09:09;;;;;;;5.63;4.07;;;;;;;20.71;34.28;97610.31;6847067;28;20883;-83
2024/03/11 10:12:31;;;;;;;1.47;1.40;;;;;;;20.19;33.81;97602.34;6845471;28;20313;-85
2024/03/11 10:15:53;;;;;;;1.70;1.60;;;;;;;20.76;33.36;97615.69;6838603;29;20305;-84
2024/03/11 10:19:16;;;;;;;1.57;1.47;;;;;;;20.23;34.03;97619.00;6837307;29;20323;-83
2024/03/11 10:22:37;;;;;;;1.67;1.57;;;;;;;20.39;33.04;97609.47;6865720;28;20291;-86
2024/03/11 10:26:17;;;;;;;1.20;1.20;;;;;;;20.04;33.48;97612.66;6852564;28;20210;-83
2024/03/11 10:29:38;;;;;;;1.47;1.37;;;;;;;19.78;32.92;97620.38;6845934;28;20675;-84
2024/03/11 10:33:02;;;;;;;1.33;1.30;;;;;;;19.65;33.89;97606.59;6861557;28;20337;-84
2024/03/11 10:36:25;;;;;;;1.37;1.30;;;;;;;19.97;33.46;97615.75;6866838;28;20216;-83
2024/03/11 10:39:48;;;;;;;1.57;1.40;;;;;;;19.93;34.16;97609.22;6840998;28;20256;-83
2024/03/11 10:43:19;;;;;;;1.63;1.20;;;;;;;19.23;35.19;97590.13;6854441;28;20201;-88
2024/03/11 10:46:41;;;;;;;1.40;1.30;;;;;;;19.12;34.32;97608.53;6865588;28;20193;-87
2024/03/11 10:50:03;;;;;;;2.33;1.43;;;;;;;18.89;34.37;97613.91;6863810;28;20586;-87
2024/03/11 10:53:26;;;;;;;1.90;1.30;;;;;;;19.25;34.13;97599.66;6868437;28;20236;-84
2024/03/11 10:56:48;;;;;;;1.57;1.40;;;;;;;19.33;34.19;97600.97;6841646;28;20285;-83
2024/03/11 11:00:18;;;;;;;1.60;1.50;;;;;;;19.30;34.54;97593.31;6859690;28;20273;-88
2024/03/11 11:03:43;;;;;;;1.10;1.10;;;;;;;19.24;33.99;97613.63;6866168;28;20305;-84
2024/03/11 11:07:08;;;;;;;1.70;1.50;;;;;;;19.02;34.93;97605.88;6873677;28;20194;-83
2024/03/11 11:10:35;;;;;;;1.20;1.20;;;;;;;19.56;33.36;97540.81;6863140;28;20296;-82
2024/03/11 11:13:57;;;;;;;1.20;1.10;;;;;;;19.71;33.33;97602.69;6861624;28;20248;-83
2024/03/11 11:17:19;;;;;;;1.00;1.00;;;;;;;19.33;33.86;97582.63;6861115;28;20245;-85
2024/03/11 11:20:42;;;;;;;1.20;1.20;;;;;;;19.03;34.01;97610.22;6868537;28;20787;-83
2024/03/11 11:24:26;;;;;;;1.27;1.23;;;;;;;18.91;33.93;97527.03;6868808;28;20606;-83
2024/03/11 11:27:51;;;;;;;2.87;1.23;;;;;;;19.97;34.11;97599.34;6844948;28;20209;-82
2024/03/11 11:31:17;;;;;;;1.50;1.40;;;;;;;20.28;32.83;97588.81;6873786;28;20291;-83
2024/03/11 11:34:55;;;;;;;1.40;1.30;;;;;;;20.26;32.32;97586.38;6876828;28;20293;-83
2024/03/11 11:38:29;;;;;;;1.33;1.23;;;;;;;19.15;33.20;97591.53;6873383;28;20238;-83
2024/03/11 11:41:54;;;;;;;1.20;1.10;;;;;;;19.23;32.42;97595.59;6889879;28;20212;-83
2024/03/11 11:45:46;;;;;;;1.20;1.10;;;;;;;18.81;31.25;97598.94;6874147;28;20182;-83
2024/03/11 11:49:17;;;;;;;1.20;1.10;;;;;;;18.77;32.60;97589.72;6866991;28;20226;-83
2024/03/11 11:52:39;;;;;;;1.17;1.17;;;;;;;19.72;33.00;97593.38;6881361;28;20240;-83
2024/03/11 11:56:01;;;;;;;1.50;1.40;;;;;;;20.34;31.46;97582.94;6873285;28;20208;-88
2024/03/11 11:59:24;;;;;;;1.70;1.30;;;;;;;19.73;31.71;97584.88;6862328;28;20231;-81
2024/03/11 12:02:51;;;;;;;0.93;0.93;;;;;;;19.93;32.04;97584.59;6889844;28;20205;-83
2024/03/11 12:06:17;;;;;;;1.20;1.10;;;;;;;19.63;30.83;97582.25;6864511;28;20192;-83
2024/03/11 12:09:48;;;;;;;1.00;1.00;;;;;;;19.32;30.01;97580.16;6863574;28;20243;-83
2024/03/11 12:13:17;;;;;;;1.30;1.20;;;;;;;19.48;30.37;97584.38;6860361;28;20253;-85
2024/03/11 12:16:39;;;;;;;0.93;0.93;;;;;;;19.71;30.83;97567.97;6840821;29;20201;-84
2024/03/11 12:20:15;;;;;;;1.40;1.30;;;;;;;19.74;31.16;97574.78;6842778;28;20227;-83
2024/03/11 12:23:37;;;;;;;1.00;1.00;;;;;;;19.19;31.74;97554.34;6845205;28;20208;-84
2024/03/11 12:26:59;;;;;;;1.27;1.20;;;;;;;19.35;32.07;97591.34;6865788;28;20221;-84
2024/03/11 12:30:24;;;;;;;2.03;1.27;;;;;;;19.59;31.70;97591.34;6864553;28;20327;-83
2024/03/11 12:33:46;;;;;;;2.57;1.90;;;;;;;20.00;31.70;97597.94;6863966;28;20224;-83
2024/03/11 12:37:09;;;;;;;0.83;0.83;;;;;;;19.99;31.12;97594.38;6864679;28;20584;-84
2024/03/11 12:40:34;;;;;;;1.37;1.37;;;;;;;20.08;31.16;97569.94;6863890;28;20233;-83
2024/03/11 12:43:57;;;;;;;0.90;0.90;;;;;;;20.81;31.55;97604.66;6870015;28;20635;-84
2024/03/11 12:47:20;;;;;;;2.07;1.33;;;;;;;20.07;30.91;97601.97;6872367;28;20203;-83
2024/03/11 12:50:42;;;;;;;1.10;1.10;;;;;;;20.10;31.89;97608.78;6867888;28;20233;-82
2024/03/11 12:54:14;;;;;;;2.13;1.10;;;;;;;20.15;31.52;97616.91;6867099;28;20233;-83
2024/03/11 12:57:38;;;;;;;1.30;1.20;;;;;;;19.48;31.88;97587.94;6855451;28;20298;-83
2024/03/11 13:01:01;;;;;;;1.27;1.20;;;;;;;19.54;32.80;97603.16;6841544;28;20678;-83
2024/03/11 13:04:26;;;;;;;1.17;1.17;;;;;;;20.19;31.27;97617.94;6837527;29;20741;-83
2024/03/11 13:07:48;;;;;;;1.23;1.20;;;;;;;19.71;31.42;97535.16;6862205;28;20343;-83
2024/03/11 13:11:12;;;;;;;1.20;1.20;;;;;;;20.24;31.07;97631.56;6854873;28;20224;-85
2024/03/11 13:14:34;;;;;;;1.30;1.10;;;;;;;20.59;30.50;97603.66;6894778;28;20730;-87
2024/03/11 13:17:56;;;;;;;0.97;0.97;;;;;;;20.85;29.80;97616.66;6893629;28;20449;-86
2024/03/11 13:21:19;;;;;;;1.23;1.13;;;;;;;20.61;30.71;97620.59;6893673;28;20219;-82
2024/03/11 13:24:41;;;;;;;1.03;1.03;;;;;;;20.61;32.03;97620.59;6863037;28;20214;-83
2024/03/11 13:28:05;;;;;;;7.17;1.50;;;;;;;20.23;32.09;97638.94;6891541;28;20766;-83
2024/03/11 13:31:27;;;;;;;1.17;1.03;;;;;;;19.91;31.93;97647.03;6895793;28;20233;-83
2024/03/11 13:34:49;;;;;;;1.13;1.13;;;;;;;19.35;32.77;97637.00;6895793;28;20241;-83
2024/03/11 13:38:12;;;;;;;1.30;1.20;;;;;;;19.44;33.41;97657.13;6894686;28;20311;-82
2024/03/11 13:41:33;;;;;;;1.67;1.50;;;;;;;18.71;34.34;97639.19;6896167;28;20626;-83
2024/03/11 13:44:56;;;;;;;1.90;1.80;;;;;;;18.56;34.66;97664.69;6882456;28;20208;-82
2024/03/11 13:48:19;;;;;;;1.27;1.17;;;;;;;18.21;35.71;97664.88;6869733;28;20736;-82
2024/03/11 13:51:41;;;;;;;1.57;1.30;;;;;;;17.97;35.13;97589.44;6868662;28;20209;-83
2024/03/11 13:55:02;;;;;;;1.20;1.20;;;;;;;18.07;35.13;97669.31;6868471;28;20303;-83
2024/03/11 13:58:26;;;;;;;1.47;1.30;;;;;;;18.54;35.07;97664.16;6868049;28;20280;-83
2024/03/11 14:01:49;;;;;;;1.30;1.20;;;;;;;18.16;35.25;97626.69;6869007;28;20273;-83
2024/03/11 14:05:13;;;;;;;1.50;1.40;;;;;;;17.79;36.14;97659.06;6870092;28;20300;-82
2024/03/11 14:08:35;;;;;;;2.73;1.30;;;;;;;18.53;35.78;97667.16;6870306;28;20816;-83
2024/03/11 14:11:57;;;;;;;1.70;1.60;;;;;;;17.35;36.41;97586.44;6870480;28;20229;-83
2024/03/11 14:15:18;;;;;;;2.60;1.30;;;;;;;18.33;35.66;97676.28;6868700;28;20303;-83
2024/03/11 14:18:42;;;;;;;1.30;1.27;;;;;;;18.67;35.54;97673.63;6877556;28;20273;-83
2024/03/11 14:22:06;;;;;;;1.27;1.20;;;;;;;18.00;35.94;97668.81;6870289;28;20216;-83
2024/03/11 14:25:31;;;;;;;1.50;1.40;;;;;;;18.26;35.85;97661.28;6869172;28;20208;-83
2024/03/11 14:28:53;;;;;;;4.53;1.40;;;;;;;18.71;34.44;97686.44;6866301;28;20240;-86
2024/03/11 14:32:15;;;;;;;1.40;1.30;;;;;;;18.64;35.02;97691.38;6870487;28;20240;-83
2024/03/11 14:35:38;;;;;;;1.40;1.30;;;;;;;18.44;35.79;97698.88;6870068;28;20583;-82
2024/03/11 14:39:00;;;;;;;1.93;1.37;;;;;;;18.63;35.00;97680.75;6869103;28;20232;-82
2024/03/11 14:42:24;;;;;;;1.20;1.20;;;;;;;18.50;34.39;97706.75;6870055;28;20575;-83
2024/03/11 14:45:47;;;;;;;1.13;1.10;;;;;;;18.77;32.59;97704.41;6871917;28;20672;-83
2024/03/11 14:49:10;;;;;;;1.47;1.37;;;;;;;18.50;32.69;97693.13;6870860;28;20265;-83
2024/03/11 14:52:33;;;;;;;2.50;1.57;;;;;;;18.96;32.60;97683.50;6868499;28;20233;-83
2024/03/11 14:55:55;;;;;;;1.50;1.40;;;;;;;18.73;32.26;97662.38;6866858;28;20292;-83
2024/03/11 14:59:18;;;;;;;1.60;1.50;;;;;;;18.91;32.10;97689.00;6865315;28;20846;-83
2024/03/11 15:02:42;;;;;;;1.10;1.10;;;;;;;19.00;32.23;97702.88;6857269;28;20217;-83
2024/03/11 15:06:09;;;;;;;1.70;1.60;;;;;;;19.24;32.36;97701.06;6843112;28;20289;-83
2024/03/11 15:09:32;;;;;;;4.53;1.70;;;;;;;19.33;32.05;97707.56;6865395;28;20313;-82
2024/03/11 15:12:56;;;;;;;2.33;1.10;;;;;;;19.14;31.33;97714.78;6865769;28;20308;-83
2024/03/11 15:16:19;;;;;;;3.57;1.33;;;;;;;19.09;31.23;97709.34;6864123;28;20202;-84
2024/03/11 15:19:41;;;;;;;1.27;1.17;;;;;;;19.47;31.63;97722.16;6864829;28;20248;-83
2024/03/11 15:23:05;;;;;;;1.13;1.13;;;;;;;19.18;31.51;97686.59;6865870;28;20201;-83
2024/03/11 15:26:28;;;;;;;1.40;1.30;;;;;;;19.51;31.79;97720.50;6839807;29;20209;-83
2024/03/11 15:29:50;;;;;;;2.23;1.40;;;;;;;19.56;31.69;97728.63;6842675;28;20279;-84
2024/03/11 15:33:15;;;;;;;1.33;1.23;;;;;;;19.30;32.66;97732.72;6849199;28;20224;-83
2024/03/11 15:36:38;;;;;;;1.97;1.33;;;;;;;19.02;32.09;97662.41;6863518;28;20213;-83
2024/03/11 15:40:00;;;;;;;2.03;1.10;;;;;;;19.40;32.58;97746.31;6856579;28;20720;-83
2024/03/11 15:43:24;;;;;;;1.50;1.40;;;;;;;19.11;34.12;97745.41;6842308;29;20274;-83
2024/03/11 15:46:46;;;;;;;1.40;1.30;;;;;;;18.50;35.04;97753.16;6841304;28;20346;-84
2024/03/11 15:50:19;;;;;;;1.40;1.30;;;;;;;18.03;36.21;97765.59;6863411;28;20719;-83
2024/03/11 15:53:40;;;;;;;1.33;1.23;;;;;;;17.90;36.58;97764.28;6882376;28;20224;-84
2024/03/11 15:57:02;;;;;;;1.20;1.20;;;;;;;17.66;36.80;97763.25;6885456;28;21134;-82
2024/03/11 16:00:27;;;;;;;1.17;1.17;;;;;;;17.71;36.95;97759.69;6883917;28;20229;-84
2024/03/11 16:03:49;;;;;;;1.30;1.20;;;;;;;17.73;37.13;97768.41;6880197;28;20209;-84
2024/03/11 16:07:14;;;;;;;2.23;1.30;;;;;;;17.69;37.26;97770.88;6862775;28;20210;-87
2024/03/11 16:10:37;;;;;;;1.70;1.60;;;;;;;17.65;37.38;97772.53;6864586;28;20243;-82
2024/03/11 16:13:58;;;;;;;1.80;1.70;;;;;;;17.61;37.52;97776.88;6866405;28;20228;-83
2024/03/11 16:17:22;;;;;;;1.90;1.80;;;;;;;17.92;37.65;97773.00;6866309;28;20210;-84
2024/03/11 16:20:43;;;;;;;2.10;1.90;;;;;;;17.90;37.35;97782.56;6866716;28;20236;-84
2024/03/11 16:24:05;;;;;;;2.27;1.90;;;;;;;17.86;37.39;97771.38;6866917;28;20220;-83
2024/03/11 16:27:31;;;;;;;2.20;1.73;;;;;;;17.69;37.34;97794.59;6867029;28;20759;-83
2024/03/11 16:30:53;;;;;;;2.10;1.90;;;;;;;17.74;37.72;97792.69;6867542;28;20196;-83
2024/03/11 16:34:18;;;;;;;2.10;1.77;;;;;;;17.66;37.67;97770.59;6864504;28;20371;-83
2024/03/11 16:37:40;;;;;;;2.53;1.63;;;;;;;17.79;37.62;97809.03;6865594;28;20280;-85
2024/03/11 16:41:02;;;;;;;1.60;1.50;;;;;;;17.83;37.24;97804.66;6864482;28;20201;-84
2024/03/11 16:44:24;;;;;;;2.27;1.40;;;;;;;17.92;36.74;97794.81;6861900;28;20209;-85
2024/03/11 16:47:48;;;;;;;1.77;1.30;;;;;;;17.57;37.44;97800.31;6865164;28;20213;-84
2024/03/11 16:51:11;;;;;;;2.50;2.30;;;;;;;16.81;38.43;97749.59;6867327;28;20207;-84
2024/03/11 16:54:33;;;;;;;2.20;1.60;;;;;;;16.73;39.75;97809.19;6868932;28;20358;-84
2024/03/11 16:57:55;;;;;;;1.70;1.60;;;;;;;17.23;38.73;97812.00;6866542;28;20238;-84
2024/03/11 17:01:17;;;;;;;2.00;1.60;;;;;;;16.06;40.14;97759.41;6866044;28;20203;-84
2024/03/11 17:04:40;;;;;;;1.53;1.43;;;;;;;16.21;40.37;97832.91;6867737;28;20297;-84
2024/03/11 17:08:03;;;;;;;1.40;1.33;;;;;;;15.99;40.07;97810.50;6875233;28;20815;-84
2024/03/11 17:11:25;;;;;;;1.70;1.60;;;;;;;16.08;40.92;97820.59;6870093;28;20581;-84
2024/03/11 17:14:48;;;;;;;1.90;1.80;;;;;;;16.16;40.60;97819.28;6870638;28;20271;-84
2024/03/11 17:18:11;;;;;;;2.70;2.00;;;;;;;16.51;40.50;97836.59;6869675;28;20227;-84
2024/03/11 17:21:33;;;;;;;1.87;1.70;;;;;;;16.50;40.00;97809.66;6870781;28;20224;-84
2024/03/11 17:24:56;;;;;;;1.80;1.70;;;;;;;16.59;39.80;97832.56;6871327;28;20364;-84
2024/03/11 17:28:18;;;;;;;2.33;1.80;;;;;;;16.52;40.18;97861.94;6871856;28;20356;-83
2024/03/11 17:31:40;;;;;;;2.50;2.30;;;;;;;16.07;41.31;97870.63;6871536;28;20292;-84
2024/03/11 17:35:01;;;;;;;2.33;1.70;;;;;;;15.72;41.70;97869.53;6872785;28;20234;-83
2024/03/11 17:38:25;;;;;;;2.73;2.53;;;;;;;15.56;42.41;97875.94;6862964;28;20366;-84
2024/03/11 17:41:49;;;;;;;3.33;3.00;;;;;;;15.73;42.48;97877.44;6844989;29;20212;-84
2024/03/11 17:45:14;;;;;;;3.53;2.97;;;;;;;15.76;42.37;97882.34;6848987;29;20213;-84
2024/03/11 17:48:35;;;;;;;7.70;4.33;;;;;;;15.29;43.26;97886.78;6849659;28;20582;-84
2024/03/11 17:51:57;;;;;;;3.43;2.60;;;;;;;15.18;43.63;97895.13;6849005;29;20239;-84
2024/03/11 17:55:20;;;;;;;2.00;1.90;;;;;;;15.15;43.33;97903.78;6846187;29;20305;-84
2024/03/11 17:58:45;;;;;;;2.03;1.93;;;;;;;15.22;43.56;97912.53;6844161;28;20237;-84
2024/03/11 18:02:06;;;;;;;3.13;2.50;;;;;;;14.75;44.75;97900.59;6855229;28;20622;-84
2024/03/11 18:05:28;;;;;;;4.37;2.90;;;;;;;14.83;44.60;97911.84;6868721;28;20286;-84
2024/03/11 18:08:50;;;;;;;3.37;2.63;;;;;;;14.82;44.76;97914.78;6868972;28;20229;-84
2024/03/11 18:12:11;;;;;;;4.97;2.80;;;;;;;14.44;45.32;97931.94;6869091;28;20292;-84
2024/03/11 18:15:34;;;;;;;3.13;2.83;;;;;;;13.74;46.05;97875.84;6868848;28;20381;-84
2024/03/11 18:18:56;;;;;;;3.20;2.90;;;;;;;14.08;46.73;97940.59;6868028;28;20226;-84
2024/03/11 18:22:18;;;;;;;5.20;2.90;;;;;;;13.97;46.88;97936.09;6866751;28;20209;-84
2024/03/11 18:25:40;;;;;;;3.47;3.17;;;;;;;13.59;47.34;97881.84;6869852;28;20260;-84
2024/03/11 18:29:04;;;;;;;4.60;3.07;;;;;;;13.96;46.47;97939.03;6863203;28;20703;-84
2024/03/11 18:32:28;;;;;;;6.30;4.50;;;;;;;12.99;49.38;97961.16;6868526;28;20207;-84
2024/03/11 18:35:49;;;;;;;4.77;3.93;;;;;;;13.56;47.83;97973.59;6849888;28;20234;-84
2024/03/11 18:39:15;;;;;;;6.73;5.77;;;;;;;12.40;50.25;97970.41;6862025;28;20293;-84
2024/03/11 18:42:38;;;;;;;6.90;5.07;;;;;;;12.70;50.16;97978.38;6867623;28;20186;-84
2024/03/11 18:45:59;;;;;;;3.80;3.37;;;;;;;13.11;48.71;97978.97;6842753;28;20237;-84
2024/03/11 18:49:24;;;;;;;4.60;4.03;;;;;;;12.77;49.55;97995.28;6839960;29;20601;-83
2024/03/11 18:52:45;;;;;;;4.43;3.50;;;;;;;12.75;49.71;97998.22;6851649;29;20202;-84
2024/03/11 18:56:07;;;;;;;6.97;4.07;;;;;;;12.79;49.72;97995.84;6873416;28;20226;-84
2024/03/11 18:59:29;;;;;;;8.50;5.07;;;;;;;12.94;49.30;98005.13;6882589;28;20378;-84
2024/03/11 19:02:52;;;;;;;7.53;5.10;;;;;;;11.86;51.52;97986.16;6883125;28;20213;-84
2024/03/11 19:06:15;;;;;;;6.70;4.30;;;;;;;12.21;51.56;98016.72;6859560;28;20207;-84
2024/03/11 19:09:49;;;;;;;3.97;3.57;;;;;;;12.48;49.95;97996.25;6858095;28;20222;-85
2024/03/11 19:13:11;;;;;;;5.00;3.20;;;;;;;12.59;49.76;98026.00;6874454;28;20232;-84
2024/03/11 19:16:33;;;;;;;6.87;4.07;;;;;;;12.67;49.39;98036.47;6854300;29;20220;-84
2024/03/11 19:19:56;;;;;;;4.20;3.70;;;;;;;12.76;48.99;98045.84;6846727;29;20229;-83
2024/03/11 19:23:18;;;;;;;7.03;4.20;;;;;;;12.46;49.77;98057.88;6855221;28;20735;-84
2024/03/11 19:26:41;;;;;;;7.13;4.00;;;;;;;12.47;49.70;98029.78;6877725;28;20222;-83
2024/03/11 19:30:02;;;;;;;7.67;4.90;;;;;;;12.18;49.75;98019.88;6877872;28;20260;-84
2024/03/11 19:33:25;;;;;;;6.43;3.87;;;;;;;12.46;49.50;98064.06;6875194;28;20224;-83
2024/03/11 19:37:12;;;;;;;4.40;3.80;;;;;;;11.59;51.78;98076.72;6868928;28;20224;-83
2024/03/11 19:40:42;;;;;;;5.00;3.27;;;;;;;11.33;51.39;97996.09;6877266;28;20236;-83
2024/03/11 19:44:29;;;;;;;3.40;3.07;;;;;;;11.65;51.64;98079.34;6866394;28;20201;-84
2024/03/11 19:48:20;;;;;;;4.17;3.33;;;;;;;11.53;50.93;98034.41;6861311;28;20655;-84
2024/03/11 19:52:18;;;;;;;7.77;4.33;;;;;;;12.01;50.73;98108.91;6828286;28;20207;-84
2024/03/11 19:56:22;;;;;;;7.60;4.17;;;;;;;11.88;51.07;98116.38;6898947;28;20212;-84
2024/03/11 20:00:25;;;;;;;3.50;3.20;;;;;;;11.98;50.99;98125.56;6907936;28;20339;-82